createdAt,value
2019-01-29T00:00:44.546Z,2.15
2019-01-29T00:03:16.111Z,2.22
2019-01-29T00:05:47.567Z,2.26
2019-01-29T00:08:19.072Z,2.29
2019-01-29T00:10:50.627Z,2.33
2019-01-29T00:13:22.104Z,2.42
2019-01-29T00:15:53.665Z,2.48
2019-01-29T00:18:25.124Z,2.51
2019-01-29T00:20:56.551Z,2.55
2019-01-29T00:23:28.014Z,2.58
2019-01-29T00:25:59.485Z,2.60
2019-01-29T00:28:31.008Z,2.59
2019-01-29T00:31:02.445Z,2.60
2019-01-29T00:33:34.245Z,2.61
2019-01-29T00:36:05.726Z,2.58
2019-01-29T00:38:37.231Z,2.57
2019-01-29T00:41:08.677Z,2.51
2019-01-29T00:43:40.102Z,2.45
2019-01-29T00:46:13.220Z,2.48
2019-01-29T00:48:44.978Z,2.49
2019-01-29T00:51:16.430Z,2.50
2019-01-29T00:53:47.922Z,2.49
2019-01-29T00:56:19.350Z,2.51
2019-01-29T00:58:50.841Z,2.50
2019-01-29T01:01:22.321Z,2.49
2019-01-29T01:03:54.093Z,2.47
2019-01-29T01:06:25.537Z,2.49
2019-01-29T01:08:57.053Z,2.43
2019-01-29T01:11:28.637Z,2.27
2019-01-29T01:14:00.117Z,2.18
2019-01-29T01:16:31.891Z,2.12
2019-01-29T01:19:03.765Z,2.00
2019-01-29T01:21:35.176Z,1.98
2019-01-29T01:24:06.633Z,2.06
2019-01-29T01:26:38.121Z,2.04
2019-01-29T01:29:09.581Z,2.04
2019-01-29T01:31:41.010Z,2.05
2019-01-29T01:34:12.728Z,2.08
2019-01-29T01:36:44.199Z,2.05
2019-01-29T01:39:15.621Z,2.04
2019-01-29T01:41:47.051Z,2.02
2019-01-29T01:44:18.591Z,2.02
2019-01-29T01:46:50.092Z,1.99
2019-01-29T01:49:21.956Z,1.96
2019-01-29T01:51:53.413Z,1.91
2019-01-29T01:54:24.854Z,1.86
2019-01-29T01:56:56.305Z,1.82
2019-01-29T01:59:27.755Z,1.76
2019-01-29T02:01:59.226Z,1.71
2019-01-29T02:04:30.965Z,1.66
2019-01-29T02:07:02.407Z,1.59
2019-01-29T02:09:33.939Z,1.57
2019-01-29T02:12:05.403Z,1.51
2019-01-29T02:14:36.916Z,1.50
2019-01-29T02:17:08.711Z,1.52
2019-01-29T02:19:40.517Z,1.48
2019-01-29T02:22:11.975Z,1.45
2019-01-29T02:24:43.544Z,1.44
2019-01-29T02:27:14.958Z,1.40
2019-01-29T02:29:46.452Z,1.37
2019-01-29T02:32:17.871Z,1.35
2019-01-29T02:34:49.631Z,1.35
2019-01-29T02:37:21.069Z,1.33
2019-01-29T02:39:52.687Z,1.33
2019-01-29T02:42:24.161Z,1.25
2019-01-29T02:44:55.666Z,1.23
2019-01-29T02:47:27.091Z,1.20
2019-01-29T02:49:58.955Z,1.17
2019-01-29T02:52:30.408Z,1.20
2019-01-29T02:55:01.889Z,1.18
2019-01-29T02:57:33.302Z,1.21
2019-01-29T03:00:05.036Z,1.26
2019-01-29T03:02:36.581Z,1.30
2019-01-29T03:05:09.052Z,1.34
2019-01-29T03:07:40.525Z,1.36
2019-01-29T03:10:13.931Z,1.38
2019-01-29T03:12:45.342Z,1.34
2019-01-29T03:15:32.078Z,1.40
2019-01-29T03:18:03.786Z,1.44
2019-01-29T03:20:35.547Z,1.46
2019-01-29T03:23:07.019Z,1.50
2019-01-29T03:25:38.466Z,1.54
2019-01-29T03:28:09.909Z,1.53
2019-01-29T03:30:41.390Z,1.57
2019-01-29T03:33:12.871Z,1.60
2019-01-29T03:35:44.362Z,1.62
2019-01-29T03:38:15.812Z,1.63
2019-01-29T03:40:47.290Z,1.64
2019-01-29T03:43:18.759Z,1.67
2019-01-29T03:45:50.237Z,1.65
2019-01-29T03:48:21.683Z,1.66
2019-01-29T03:50:53.410Z,1.65
2019-01-29T03:53:24.890Z,1.66
2019-01-29T03:55:56.336Z,1.66
2019-01-29T03:58:27.790Z,1.65
2019-01-29T04:00:59.237Z,1.58
2019-01-29T04:03:30.738Z,1.51
2019-01-29T04:06:02.442Z,1.50
2019-01-29T04:08:33.928Z,1.46
2019-01-29T04:11:05.371Z,1.40
2019-01-29T04:13:36.809Z,1.34
2019-01-29T04:16:08.342Z,1.28
2019-01-29T04:18:39.939Z,1.25
2019-01-29T04:21:11.647Z,1.20
2019-01-29T04:23:47.796Z,1.16
2019-01-29T04:26:16.257Z,1.15
2019-01-29T04:28:47.746Z,1.12
2019-01-29T04:31:19.611Z,1.09
2019-01-29T04:33:51.075Z,1.09
2019-01-29T04:36:22.820Z,1.08
2019-01-29T04:38:54.277Z,1.07
2019-01-29T04:41:25.719Z,1.02
2019-01-29T04:43:57.192Z,1.02
2019-01-29T04:46:28.687Z,0.99
2019-01-29T04:49:00.212Z,1.01
2019-01-29T04:51:31.900Z,1.04
2019-01-29T04:54:03.372Z,1.08
2019-01-29T04:56:37.695Z,1.10
2019-01-29T04:59:09.180Z,1.12
2019-01-29T05:01:40.623Z,1.11
2019-01-29T05:04:12.077Z,1.10
2019-01-29T05:06:43.854Z,1.15
2019-01-29T05:09:15.320Z,1.11
2019-01-29T05:11:46.766Z,1.11
2019-01-29T05:14:18.239Z,1.12
2019-01-29T05:16:49.743Z,1.15
2019-01-29T05:19:21.564Z,1.17
2019-01-29T05:21:53.211Z,1.19
2019-01-29T05:24:24.981Z,1.21
2019-01-29T05:26:56.495Z,1.24
2019-01-29T05:29:28.062Z,1.25
2019-01-29T05:31:59.502Z,1.27
2019-01-29T05:34:30.951Z,1.30
2019-01-29T05:37:02.444Z,1.31
2019-01-29T05:39:33.927Z,1.32
2019-01-29T05:42:05.372Z,1.29
2019-01-29T05:44:36.903Z,1.30
2019-01-29T05:47:08.416Z,1.35
2019-01-29T05:49:39.886Z,1.34
2019-01-29T05:52:11.616Z,1.35
2019-01-29T05:54:43.081Z,1.33
2019-01-29T05:57:14.585Z,1.33
2019-01-29T05:59:46.024Z,1.35
2019-01-29T06:02:17.756Z,1.39
2019-01-29T06:04:49.198Z,1.43
2019-01-29T06:07:20.959Z,1.42
2019-01-29T06:09:52.404Z,1.43
2019-01-29T06:12:23.948Z,1.46
2019-01-29T06:14:55.410Z,1.48
2019-01-29T06:17:28.537Z,1.48
2019-01-29T06:20:00.300Z,1.44
2019-01-29T06:22:32.024Z,1.48
2019-01-29T06:25:03.490Z,1.52
2019-01-29T06:27:34.990Z,1.53
2019-01-29T06:30:08.474Z,1.53
2019-01-29T06:32:39.982Z,1.58
2019-01-29T06:35:13.947Z,1.55
2019-01-29T06:37:45.710Z,1.55
2019-01-29T06:40:26.114Z,1.55
2019-01-29T06:42:57.586Z,1.60
2019-01-29T06:45:29.009Z,1.60
2019-01-29T06:48:00.500Z,1.62
2019-01-29T06:50:31.947Z,1.62
2019-01-29T06:53:03.690Z,1.65
2019-01-29T06:55:35.174Z,1.70
2019-01-29T06:58:06.612Z,1.67
2019-01-29T07:00:38.083Z,1.70
2019-01-29T07:03:09.763Z,1.74
2019-01-29T07:05:41.243Z,1.75
2019-01-29T07:08:12.851Z,1.75
2019-01-29T07:10:44.361Z,1.82
2019-01-29T07:13:15.880Z,1.88
2019-01-29T07:19:16.160Z,1.80
2019-01-29T07:21:47.690Z,1.90
2019-01-29T07:24:19.293Z,1.93
2019-01-29T07:26:50.734Z,1.97
2019-01-29T07:29:22.174Z,2.00
2019-01-29T07:31:53.640Z,1.99
2019-01-29T07:34:25.060Z,2.07
2019-01-29T07:36:56.481Z,2.13
2019-01-29T07:39:28.320Z,2.17
2019-01-29T07:41:59.788Z,2.13
2019-01-29T07:44:31.233Z,2.04
2019-01-29T07:47:02.706Z,2.22
2019-01-29T07:49:34.176Z,2.34
2019-01-29T07:52:05.674Z,2.54
2019-01-29T07:54:37.317Z,2.68
2019-01-29T07:57:08.777Z,2.61
2019-01-29T07:59:40.296Z,2.47
2019-01-29T08:02:11.968Z,2.62
2019-01-29T08:04:43.535Z,2.61
2019-01-29T08:07:14.964Z,2.23
2019-01-29T08:09:47.253Z,2.22
2019-01-29T08:12:18.715Z,2.19
2019-01-29T08:14:50.228Z,2.29
2019-01-29T08:17:21.675Z,2.24
2019-01-29T08:19:53.256Z,2.16
2019-01-29T08:22:24.692Z,2.29
2019-01-29T08:25:01.914Z,2.33
2019-01-29T08:27:29.697Z,2.26
2019-01-29T08:30:01.175Z,2.16
2019-01-29T08:32:33.937Z,1.79
2019-01-29T08:35:05.488Z,1.84
2019-01-29T08:37:36.992Z,1.71
2019-01-29T08:40:08.969Z,1.73
2019-01-29T08:42:40.457Z,1.75
2019-01-29T08:45:11.983Z,1.90
2019-01-29T08:47:43.455Z,1.91
2019-01-29T08:50:19.096Z,1.93
2019-01-29T08:52:50.608Z,1.87
2019-01-29T08:55:22.839Z,1.90
2019-01-29T08:57:54.364Z,1.97
2019-01-29T09:00:27.590Z,2.11
2019-01-29T09:02:59.077Z,2.09
2019-01-29T09:05:30.611Z,2.09
2019-01-29T09:08:02.097Z,2.02
2019-01-29T09:10:33.928Z,2.17
2019-01-29T09:13:05.415Z,2.37
2019-01-29T09:15:36.906Z,2.66
2019-01-29T09:18:08.391Z,2.65
2019-01-29T09:20:39.855Z,2.72
2019-01-29T09:23:11.854Z,2.93
2019-01-29T09:25:43.585Z,2.84
2019-01-29T09:28:18.493Z,3.13
2019-01-29T09:30:48.294Z,3.22
2019-01-29T09:33:19.936Z,2.99
2019-01-29T09:35:51.429Z,3.06
2019-01-29T09:38:22.904Z,3.20
2019-01-29T09:40:54.748Z,3.12
2019-01-29T09:43:26.229Z,3.44
2019-01-29T09:45:57.706Z,3.38
2019-01-29T09:48:30.787Z,3.32
2019-01-29T09:51:02.255Z,3.33
2019-01-29T09:53:33.790Z,3.20
2019-01-29T09:56:05.656Z,3.08
2019-01-29T09:58:37.118Z,3.06
2019-01-29T10:01:08.620Z,3.28
2019-01-29T10:03:40.149Z,3.28
2019-01-29T10:06:11.589Z,3.29
2019-01-29T10:08:43.034Z,3.47
2019-01-29T10:11:14.805Z,3.40
2019-01-29T10:13:46.337Z,3.35
2019-01-29T10:16:17.799Z,3.26
2019-01-29T10:18:49.325Z,3.38
2019-01-29T10:21:21.954Z,3.42
2019-01-29T10:23:53.869Z,3.28
2019-01-29T10:26:25.655Z,3.60
2019-01-29T10:28:57.086Z,3.63
2019-01-29T10:31:28.583Z,3.72
2019-01-29T10:34:00.036Z,3.75
2019-01-29T10:36:31.648Z,3.75
2019-01-29T10:39:03.183Z,3.53
2019-01-29T10:41:36.600Z,3.62
2019-01-29T10:44:08.174Z,3.85
2019-01-29T10:46:39.619Z,3.64
2019-01-29T10:49:11.086Z,3.62
2019-01-29T10:51:42.535Z,3.57
2019-01-29T10:54:13.992Z,3.24
2019-01-29T10:56:45.825Z,3.18
2019-01-29T10:59:17.275Z,3.32
2019-01-29T11:01:48.776Z,3.17
2019-01-29T11:04:20.291Z,3.27
2019-01-29T11:06:51.906Z,3.55
2019-01-29T11:09:25.625Z,3.35
2019-01-29T11:11:56.888Z,3.18
2019-01-29T11:14:28.364Z,3.21
2019-01-29T11:16:59.841Z,3.36
2019-01-29T11:19:31.320Z,3.21
2019-01-29T11:22:02.779Z,3.26
2019-01-29T11:24:34.654Z,3.11
2019-01-29T11:27:06.416Z,3.01
2019-01-29T11:29:37.857Z,3.09
2019-01-29T11:32:09.389Z,3.21
2019-01-29T11:34:40.862Z,3.37
2019-01-29T11:37:12.324Z,3.18
2019-01-29T11:39:43.947Z,3.36
2019-01-29T11:42:15.749Z,3.23
2019-01-29T11:44:49.332Z,3.19
2019-01-29T11:47:20.931Z,3.07
2019-01-29T11:49:52.411Z,3.30
2019-01-29T11:52:23.897Z,3.42
2019-01-29T11:54:55.456Z,3.72
2019-01-29T11:57:27.219Z,3.75
2019-01-29T11:59:58.665Z,3.60
2019-01-29T12:02:30.185Z,3.52
2019-01-29T12:05:01.723Z,3.48
2019-01-29T12:07:33.256Z,3.61
2019-01-29T12:10:05.599Z,3.80
2019-01-29T12:12:37.351Z,3.53
2019-01-29T12:15:11.264Z,3.51
2019-01-29T12:17:46.230Z,3.49
2019-01-29T12:20:17.765Z,3.46
2019-01-29T12:22:49.315Z,3.52
2019-01-29T12:25:21.150Z,3.48
2019-01-29T12:27:52.956Z,3.60
2019-01-29T12:30:24.802Z,3.61
2019-01-29T12:32:56.318Z,3.53
2019-01-29T12:35:27.854Z,3.55
2019-01-29T12:38:00.564Z,3.56
2019-01-29T12:40:32.085Z,3.73
2019-01-29T12:43:04.131Z,3.71
2019-01-29T12:45:35.652Z,3.71
2019-01-29T12:48:07.659Z,3.58
2019-01-29T12:50:40.863Z,3.58
2019-01-29T12:53:17.188Z,3.41
2019-01-29T12:55:48.641Z,3.41
2019-01-29T12:58:20.510Z,3.58
2019-01-29T13:00:55.545Z,3.61
2019-01-29T13:03:27.011Z,3.54
2019-01-29T13:05:58.471Z,3.50
2019-01-29T13:08:29.998Z,3.63
2019-01-29T13:11:03.315Z,3.69
2019-01-29T13:13:35.137Z,3.65
2019-01-29T13:16:06.639Z,3.68
2019-01-29T13:18:38.187Z,3.56
2019-01-29T13:21:09.641Z,3.47
2019-01-29T13:23:41.136Z,3.70
2019-01-29T13:26:12.894Z,3.67
2019-01-29T13:28:44.827Z,3.69
2019-01-29T13:31:16.276Z,3.33
2019-01-29T13:33:47.772Z,3.25
2019-01-29T13:36:20.813Z,3.54
2019-01-29T13:38:52.330Z,3.39
2019-01-29T13:41:23.801Z,3.44
2019-01-29T13:43:55.537Z,3.51
2019-01-29T13:46:27.046Z,3.48
2019-01-29T13:48:58.535Z,3.52
2019-01-29T13:51:30.030Z,3.40
2019-01-29T13:54:01.534Z,3.11
2019-01-29T13:56:38.808Z,3.33
2019-01-29T13:59:06.615Z,3.02
2019-01-29T14:01:38.144Z,3.08
2019-01-29T14:04:09.731Z,3.25
2019-01-29T14:06:41.344Z,3.27
2019-01-29T14:09:12.807Z,3.35
2019-01-29T14:11:44.336Z,3.16
2019-01-29T14:14:16.160Z,3.32
2019-01-29T14:16:47.657Z,3.27
2019-01-29T14:19:19.157Z,3.22
2019-01-29T14:21:50.668Z,3.16
2019-01-29T14:24:22.100Z,3.23
2019-01-29T14:26:53.977Z,3.04
2019-01-29T14:29:26.641Z,2.99
2019-01-29T14:31:58.558Z,3.11
2019-01-29T14:34:31.241Z,3.16
2019-01-29T14:37:02.786Z,3.12
2019-01-29T14:40:07.310Z,3.07
2019-01-29T14:42:38.885Z,2.92
2019-01-29T14:45:23.467Z,2.99
2019-01-29T14:47:55.066Z,3.02
2019-01-29T14:50:26.609Z,2.89
2019-01-29T14:52:58.114Z,2.70
2019-01-29T14:55:29.592Z,2.62
2019-01-29T14:58:01.471Z,2.50
2019-01-29T15:00:33.024Z,2.61
2019-01-29T15:03:04.503Z,2.51
2019-01-29T15:05:38.979Z,2.47
2019-01-29T15:08:10.640Z,2.47
2019-01-29T15:10:42.300Z,2.37
2019-01-29T15:13:14.058Z,2.67
2019-01-29T15:15:50.865Z,2.65
2019-01-29T15:18:25.957Z,2.52
2019-01-29T15:20:57.521Z,2.48
2019-01-29T15:23:30.094Z,2.52
2019-01-29T15:26:01.605Z,2.53
2019-01-29T15:28:33.200Z,2.24
2019-01-29T15:31:05.058Z,2.32
2019-01-29T15:33:36.502Z,2.23
2019-01-29T15:36:08.305Z,2.39
2019-01-29T15:38:39.856Z,2.43
2019-01-29T15:41:11.359Z,2.36
2019-01-29T15:43:43.905Z,2.48
2019-01-29T15:46:15.593Z,2.57
2019-01-29T15:48:47.095Z,2.64
2019-01-29T15:51:18.537Z,2.37
2019-01-29T15:53:50.060Z,2.56
2019-01-29T15:56:21.540Z,2.35
2019-01-29T15:58:53.143Z,2.33
2019-01-29T16:01:24.598Z,2.37
2019-01-29T16:03:56.082Z,2.39
2019-01-29T16:06:29.222Z,2.17
2019-01-29T16:09:00.711Z,2.19
2019-01-29T16:11:33.830Z,2.18
2019-01-29T16:14:05.821Z,2.10
2019-01-29T16:16:37.655Z,2.15
2019-01-29T16:19:09.142Z,2.14
2019-01-29T16:21:40.641Z,2.08
2019-01-29T16:24:12.188Z,2.00
2019-01-29T16:26:43.887Z,2.13
2019-01-29T16:29:15.456Z,2.16
2019-01-29T16:31:47.162Z,2.03
2019-01-29T16:34:18.708Z,2.05
2019-01-29T16:36:50.197Z,1.92
2019-01-29T16:39:21.717Z,1.90
2019-01-29T16:41:53.193Z,1.97
2019-01-29T16:44:24.783Z,1.97
2019-01-29T16:46:56.883Z,1.65
2019-01-29T16:49:28.444Z,1.87
2019-01-29T16:51:59.899Z,1.92
2019-01-29T16:54:31.398Z,2.03
2019-01-29T16:57:02.867Z,1.82
2019-01-29T16:59:34.493Z,1.90
2019-01-29T17:02:06.263Z,1.74
2019-01-29T17:04:37.771Z,1.95
2019-01-29T17:07:09.311Z,1.85
2019-01-29T17:09:40.783Z,1.87
2019-01-29T17:12:12.253Z,1.85
2019-01-29T17:14:43.853Z,1.55
2019-01-29T17:17:15.679Z,1.52
2019-01-29T17:19:47.313Z,1.61
2019-01-29T17:22:18.966Z,1.62
2019-01-29T17:24:50.787Z,1.59
2019-01-29T17:27:22.346Z,1.75
2019-01-29T17:29:54.273Z,1.73
2019-01-29T17:32:30.391Z,1.78
2019-01-29T17:34:58.983Z,1.87
2019-01-29T17:37:30.542Z,1.91
2019-01-29T17:40:02.014Z,1.92
2019-01-29T17:42:33.582Z,1.87
2019-01-29T17:45:05.420Z,1.97
2019-01-29T17:47:37.607Z,1.86
2019-01-29T17:50:15.584Z,1.84
2019-01-29T17:52:47.414Z,1.86
2019-01-29T17:55:19.451Z,1.53
2019-01-29T17:57:51.585Z,1.33
2019-01-29T18:00:28.212Z,1.43
2019-01-29T18:03:00.062Z,1.24
2019-01-29T18:05:31.626Z,1.36
2019-01-29T18:08:03.155Z,1.16
2019-01-29T18:10:34.844Z,1.19
2019-01-29T18:13:07.732Z,1.13
2019-01-29T18:15:40.188Z,1.19
2019-01-29T18:18:12.056Z,1.17
2019-01-29T18:20:43.604Z,1.11
2019-01-29T18:23:15.473Z,1.26
2019-01-29T18:25:47.059Z,1.21
2019-01-29T18:28:18.592Z,1.28
2019-01-29T18:30:50.166Z,1.15
2019-01-29T18:33:21.993Z,1.09
2019-01-29T18:35:53.514Z,1.21
2019-01-29T18:38:25.160Z,0.97
2019-01-29T18:40:58.013Z,0.99
2019-01-29T18:43:29.743Z,1.11
2019-01-29T18:46:01.366Z,1.08
2019-01-29T18:48:33.214Z,1.10
2019-01-29T18:51:04.741Z,1.28
2019-01-29T18:53:36.298Z,1.25
2019-01-29T18:56:09.240Z,1.22
2019-01-29T18:58:41.279Z,0.96
2019-01-29T19:01:12.873Z,1.06
2019-01-29T19:03:44.425Z,1.13
2019-01-29T19:06:15.997Z,1.21
2019-01-29T19:08:47.667Z,1.25
2019-01-29T19:11:19.193Z,1.27
2019-01-29T19:13:51.011Z,1.30
2019-01-29T19:16:22.797Z,1.15
2019-01-29T19:18:54.597Z,1.06
2019-01-29T19:21:26.164Z,1.22
2019-01-29T19:23:57.750Z,1.26
2019-01-29T19:26:30.173Z,1.35
2019-01-29T19:29:02.475Z,1.29
2019-01-29T19:31:35.407Z,1.36
2019-01-29T19:34:07.439Z,1.40
2019-01-29T19:36:39.079Z,1.41
2019-01-29T19:39:11.288Z,1.55
2019-01-29T19:41:42.900Z,1.67
2019-01-29T19:44:14.656Z,1.76
2019-01-29T19:46:46.236Z,1.83
2019-01-29T19:49:18.322Z,1.89
2019-01-29T19:51:50.109Z,1.83
2019-01-29T19:54:21.697Z,1.90
2019-01-29T19:56:53.594Z,1.91
2019-01-29T19:59:25.263Z,1.95
2019-01-29T20:01:57.331Z,1.97
2019-01-29T20:04:29.250Z,1.85
2019-01-29T20:07:01.065Z,1.85
2019-01-29T20:09:33.620Z,1.80
2019-01-29T20:12:05.594Z,1.62
2019-01-29T20:14:37.462Z,1.48
2019-01-29T20:17:10.312Z,1.58
2019-01-29T20:19:42.312Z,1.49
2019-01-29T20:22:14.562Z,1.48
2019-01-29T20:24:46.271Z,1.41
2019-01-29T20:27:19.380Z,1.47
2019-01-29T20:29:51.030Z,1.39
2019-01-29T20:32:23.266Z,1.29
2019-01-29T20:34:55.280Z,0.89
2019-01-29T20:37:27.235Z,0.88
2019-01-29T20:39:59.029Z,0.95
2019-01-29T20:42:30.696Z,1.16
2019-01-29T20:45:02.269Z,1.30
2019-01-29T20:47:34.191Z,1.25
2019-01-29T20:50:08.203Z,1.43
2019-01-29T20:52:39.776Z,1.21
2019-01-29T20:55:11.816Z,1.11
2019-01-29T20:57:43.557Z,1.17
2019-01-29T21:00:20.189Z,1.19
2019-01-29T21:02:52.429Z,1.16
2019-01-29T21:05:24.245Z,1.27
2019-01-29T21:07:56.023Z,1.27
2019-01-29T21:10:27.549Z,1.44
2019-01-29T21:12:59.217Z,1.41
2019-01-29T21:15:38.087Z,1.46
2019-01-29T21:18:06.621Z,1.46
2019-01-29T21:20:38.815Z,1.45
2019-01-29T21:23:10.324Z,1.53
2019-01-29T21:25:41.988Z,1.57
2019-01-29T21:28:13.566Z,1.41
2019-01-29T21:30:46.562Z,1.49
2019-01-29T21:33:18.354Z,1.46
2019-01-29T21:35:49.879Z,1.55
2019-01-29T21:38:21.536Z,1.61
2019-01-29T21:40:53.035Z,1.39
2019-01-29T21:43:24.672Z,1.39
2019-01-29T21:45:56.217Z,1.33
2019-01-29T21:48:27.734Z,1.24
2019-01-29T21:50:59.644Z,1.17
2019-01-29T21:53:31.223Z,1.22
2019-01-29T21:56:02.752Z,1.22
2019-01-29T21:58:34.422Z,1.20
2019-01-29T22:01:06.071Z,1.22
2019-01-29T22:03:37.959Z,1.18
2019-01-29T22:06:09.855Z,1.17
2019-01-29T22:08:41.355Z,1.15
2019-01-29T22:11:12.886Z,1.20
2019-01-29T22:13:44.434Z,1.30
2019-01-29T22:16:16.009Z,1.30
2019-01-29T22:18:47.599Z,1.06
2019-01-29T22:21:19.736Z,0.67
2019-01-29T22:23:51.431Z,0.85
2019-01-29T22:26:23.071Z,0.94
2019-01-29T22:28:54.596Z,0.92
2019-01-29T22:31:26.342Z,0.90
2019-01-29T22:33:58.228Z,0.78
2019-01-29T22:36:30.012Z,0.71
2019-01-29T22:39:01.541Z,0.77
2019-01-29T22:41:34.626Z,0.82
2019-01-29T22:44:06.161Z,0.93
2019-01-29T22:46:37.661Z,1.06
2019-01-29T22:49:09.124Z,1.14
2019-01-29T22:51:41.086Z,1.05
2019-01-29T22:54:12.589Z,1.07
2019-01-29T22:56:44.037Z,1.05
2019-01-29T22:59:15.516Z,1.12
2019-01-29T23:01:47.048Z,1.19
2019-01-29T23:04:34.710Z,1.24
2019-01-29T23:07:31.706Z,1.26
2019-01-29T23:10:05.018Z,1.24
2019-01-29T23:12:36.529Z,1.23
2019-01-29T23:15:10.503Z,1.18
2019-01-29T23:17:42.031Z,1.20
2019-01-29T23:20:14.018Z,1.08
2019-01-29T23:22:46.021Z,1.11
2019-01-29T23:25:17.675Z,1.17
2019-01-29T23:27:49.248Z,1.17
2019-01-29T23:30:20.763Z,1.15
2019-01-29T23:32:52.310Z,1.14
2019-01-29T23:35:24.148Z,1.04
2019-01-29T23:37:56.050Z,0.95
2019-01-29T23:40:27.620Z,0.95
2019-01-29T23:42:59.086Z,0.82
2019-01-29T23:45:30.574Z,0.80
2019-01-29T23:48:03.281Z,0.65
2019-01-29T23:50:34.761Z,0.60
2019-01-29T23:53:06.238Z,0.52
2019-01-29T23:55:39.116Z,0.34
2019-01-29T23:58:10.561Z,0.35
